createdAt,value
2022-12-04T00:01:40.543Z,98271.84
2022-12-04T00:04:44.563Z,98266.84
2022-12-04T00:07:47.744Z,98268.78
2022-12-04T00:10:50.328Z,98269.78
2022-12-04T00:13:53.423Z,98271.34
2022-12-04T00:16:56.172Z,98262.22
2022-12-04T00:20:00.215Z,98262.31
2022-12-04T00:23:03.254Z,98267.84
2022-12-04T00:26:07.955Z,98259.00
2022-12-04T00:29:10.611Z,98249.50
2022-12-04T00:32:13.431Z,98247.28
2022-12-04T00:35:17.694Z,98253.00
2022-12-04T00:38:20.396Z,98249.25
2022-12-04T00:41:24.935Z,98254.09
2022-12-04T00:44:27.671Z,98247.88
2022-12-04T00:47:30.523Z,98254.09
2022-12-04T00:50:34.603Z,98254.25
2022-12-04T00:53:37.583Z,98248.09
2022-12-04T00:56:40.430Z,98246.75
2022-12-04T00:59:43.144Z,98244.09
2022-12-04T01:02:46.768Z,98250.34
2022-12-04T01:05:50.828Z,98255.16
2022-12-04T01:08:54.660Z,98255.22
2022-12-04T01:11:57.179Z,98243.63
2022-12-04T01:14:59.812Z,98237.97
2022-12-04T01:18:02.668Z,98245.59
2022-12-04T01:21:07.106Z,98234.75
2022-12-04T01:24:09.955Z,98231.44
2022-12-04T01:27:12.993Z,98245.09
2022-12-04T01:30:15.886Z,98240.84
2022-12-04T01:33:18.615Z,98234.63
2022-12-04T01:36:24.947Z,98240.63
2022-12-04T01:39:27.654Z,98239.56
2022-12-04T01:42:30.733Z,98238.44
2022-12-04T01:45:39.973Z,98230.00
2022-12-04T01:48:45.860Z,98229.19
2022-12-04T01:51:53.480Z,98233.50
2022-12-04T01:54:58.933Z,98227.94
2022-12-04T01:58:02.176Z,98235.78
2022-12-04T02:01:09.109Z,98242.78
2022-12-04T02:04:12.239Z,98241.19
2022-12-04T02:07:16.424Z,98249.50
2022-12-04T02:10:24.446Z,98238.78
2022-12-04T02:13:30.616Z,98232.47
2022-12-04T02:16:37.844Z,98229.69
2022-12-04T02:19:56.086Z,98231.56
2022-12-04T02:23:21.429Z,98225.81
2022-12-04T02:26:41.488Z,98224.78
2022-12-04T02:29:50.244Z,98218.03
2022-12-04T02:32:59.983Z,98212.94
2022-12-04T02:36:06.570Z,98214.59
2022-12-04T02:39:14.634Z,98219.13
2022-12-04T02:42:21.097Z,98215.97
2022-12-04T02:45:28.724Z,98220.63
2022-12-04T02:48:33.797Z,98221.69
2022-12-04T02:51:38.763Z,98201.88
2022-12-04T02:54:44.447Z,98206.47
2022-12-04T02:57:50.334Z,98214.03
2022-12-04T03:00:56.153Z,98204.25
2022-12-04T03:07:33.125Z,98214.09
2022-12-04T03:10:39.481Z,98204.59
2022-12-04T03:13:45.906Z,98195.47
2022-12-04T03:16:52.717Z,98194.09
2022-12-04T03:19:58.335Z,98186.78
2022-12-04T03:23:05.315Z,98193.31
2022-12-04T03:26:12.889Z,98192.41
2022-12-04T03:29:17.348Z,98191.31
2022-12-04T03:32:25.183Z,98191.03
2022-12-04T03:35:30.865Z,98171.16
2022-12-04T03:38:37.492Z,98185.47
2022-12-04T03:41:50.299Z,98177.81
2022-12-04T03:44:56.458Z,98180.97
2022-12-04T03:48:05.649Z,98174.81
2022-12-04T03:51:13.141Z,98176.50
2022-12-04T03:54:17.766Z,98178.38
2022-12-04T03:57:24.097Z,98179.44
2022-12-04T04:00:27.272Z,98169.38
2022-12-04T04:03:34.760Z,98181.44
2022-12-04T04:06:40.682Z,98190.34
2022-12-04T04:09:46.702Z,98186.63
2022-12-04T04:13:13.410Z,98195.69
2022-12-04T04:16:35.871Z,98198.69
2022-12-04T04:19:58.083Z,98203.03
2022-12-04T04:23:20.865Z,98214.19
2022-12-04T04:26:24.502Z,98216.91
2022-12-04T04:29:28.655Z,98209.66
2022-12-04T04:32:36.638Z,98206.69
2022-12-04T04:35:47.646Z,98210.34
2022-12-04T04:38:57.445Z,98216.03
2022-12-04T04:42:04.409Z,98211.69
2022-12-04T04:45:10.339Z,98209.19
2022-12-04T04:48:17.220Z,98205.59
2022-12-04T04:51:21.896Z,98203.84
2022-12-04T04:54:24.976Z,98192.97
2022-12-04T04:57:29.225Z,98196.78
2022-12-04T05:00:31.908Z,98206.38
2022-12-04T05:03:35.504Z,98215.59
2022-12-04T05:06:39.845Z,98217.25
2022-12-04T05:09:42.635Z,98213.38
2022-12-04T05:12:45.525Z,98212.34
2022-12-04T05:15:57.481Z,98202.69
2022-12-04T05:19:19.214Z,98209.13
2022-12-04T05:22:26.086Z,98201.44
2022-12-04T05:25:28.845Z,98204.88
2022-12-04T05:28:31.683Z,98214.03
2022-12-04T05:31:34.464Z,98203.72
2022-12-04T05:34:37.243Z,98198.78
2022-12-04T05:37:42.083Z,98205.72
2022-12-04T05:40:44.860Z,98211.88
2022-12-04T05:43:47.451Z,98204.44
2022-12-04T05:46:50.168Z,98204.84
2022-12-04T05:49:53.594Z,98202.34
2022-12-04T05:52:57.938Z,98199.31
2022-12-04T05:56:04.660Z,98195.00
2022-12-04T05:59:07.372Z,98195.56
2022-12-04T06:02:10.272Z,98197.41
2022-12-04T06:05:13.170Z,98199.78
2022-12-04T06:08:17.512Z,98205.13
2022-12-04T06:11:23.047Z,98211.88
2022-12-04T06:14:25.947Z,98207.59
2022-12-04T06:17:28.768Z,98208.09
2022-12-04T06:20:31.416Z,98202.47
2022-12-04T06:23:35.584Z,98192.94
2022-12-04T06:26:52.041Z,98208.50
2022-12-04T06:30:01.162Z,98197.78
2022-12-04T06:33:03.858Z,98195.06
2022-12-04T06:36:08.355Z,98198.84
2022-12-04T06:39:17.023Z,98203.19
2022-12-04T06:42:21.754Z,98204.19
2022-12-04T06:45:32.483Z,98200.19
2022-12-04T06:48:35.986Z,98197.69
2022-12-04T06:51:40.633Z,98202.03
2022-12-04T06:54:43.448Z,98201.44
2022-12-04T06:57:46.194Z,98200.88
2022-12-04T07:00:50.427Z,98203.84
2022-12-04T07:03:53.539Z,98211.19
2022-12-04T07:06:56.430Z,98203.03
2022-12-04T07:09:59.251Z,98209.25
2022-12-04T07:13:02.365Z,98216.28
2022-12-04T07:16:08.439Z,98213.03
2022-12-04T07:19:11.705Z,98205.47
2022-12-04T07:22:14.580Z,98213.22
2022-12-04T07:25:17.290Z,98208.34
2022-12-04T07:28:20.145Z,98210.44
2022-12-04T07:31:25.986Z,98206.28
2022-12-04T07:34:28.936Z,98202.19
2022-12-04T07:37:31.973Z,98204.78
2022-12-04T07:40:35.253Z,98207.88
2022-12-04T07:43:38.109Z,98211.78
2022-12-04T07:46:42.171Z,98204.41
2022-12-04T07:49:45.146Z,98203.63
2022-12-04T07:52:48.032Z,98214.13
2022-12-04T07:55:53.318Z,98210.72
2022-12-04T07:58:56.152Z,98222.34
2022-12-04T08:02:00.316Z,98217.09
2022-12-04T08:05:03.062Z,98218.66
2022-12-04T08:08:06.337Z,98213.88
2022-12-04T08:11:10.207Z,98213.00
2022-12-04T08:14:13.661Z,98216.75
2022-12-04T08:17:18.381Z,98205.06
2022-12-04T08:20:21.373Z,98210.75
2022-12-04T08:23:24.283Z,98210.66
2022-12-04T08:26:29.203Z,98206.50
2022-12-04T08:29:31.879Z,98214.03
2022-12-04T08:32:36.279Z,98221.94
2022-12-04T08:35:39.104Z,98211.91
2022-12-04T08:38:42.127Z,98224.00
2022-12-04T08:41:44.733Z,98226.34
2022-12-04T08:44:48.025Z,98228.97
2022-12-04T08:47:52.690Z,98229.03
2022-12-04T08:50:56.615Z,98224.00
2022-12-04T08:54:01.947Z,98235.25
2022-12-04T08:57:04.874Z,98241.31
2022-12-04T09:00:09.196Z,98250.81
2022-12-04T09:03:15.563Z,98242.69
2022-12-04T09:06:18.796Z,98248.78
2022-12-04T09:09:22.506Z,98251.63
2022-12-04T09:12:25.102Z,98249.66
2022-12-04T09:15:28.387Z,98253.66
2022-12-04T09:18:32.720Z,98259.00
2022-12-04T09:21:36.912Z,98253.81
2022-12-04T09:24:39.925Z,98253.81
2022-12-04T09:27:43.520Z,98238.22
2022-12-04T09:30:46.421Z,98233.47
2022-12-04T09:33:51.093Z,98226.75
2022-12-04T09:36:54.046Z,98219.06
2022-12-04T09:39:57.152Z,98216.28
2022-12-04T09:43:04.544Z,98211.00
2022-12-04T09:46:11.618Z,98206.56
2022-12-04T09:49:19.538Z,98199.69
2022-12-04T09:52:32.136Z,98191.44
2022-12-04T09:55:38.723Z,98183.59
2022-12-04T09:58:43.225Z,98168.63
2022-12-04T10:01:48.461Z,98164.75
2022-12-04T10:04:52.982Z,98166.56
2022-12-04T10:08:05.098Z,98156.16
2022-12-04T10:11:14.298Z,98154.97
2022-12-04T10:14:32.022Z,98157.09
2022-12-04T10:18:00.112Z,98156.69
2022-12-04T10:21:30.772Z,98154.13
2022-12-04T10:24:39.504Z,98153.03
2022-12-04T10:27:43.864Z,98148.81
2022-12-04T10:30:46.983Z,98145.94
2022-12-04T10:33:53.332Z,98154.34
2022-12-04T10:37:07.299Z,98152.31
2022-12-04T10:40:15.030Z,98168.34
2022-12-04T10:43:24.744Z,98180.69
2022-12-04T10:46:29.797Z,98178.56
2022-12-04T10:49:34.838Z,98182.88
2022-12-04T10:52:38.881Z,98177.75
2022-12-04T10:55:41.547Z,98164.53
2022-12-04T10:58:44.438Z,98175.94
2022-12-04T11:01:47.309Z,98172.19
2022-12-04T11:04:56.956Z,98164.69
2022-12-04T11:08:02.334Z,98160.72
2022-12-04T11:11:08.006Z,98159.25
2022-12-04T11:14:16.417Z,98160.69
2022-12-04T11:17:20.988Z,98163.88
2022-12-04T11:20:24.978Z,98151.81
2022-12-04T11:23:32.428Z,98153.41
2022-12-04T11:26:37.235Z,98155.72
2022-12-04T11:29:44.470Z,98142.63
2022-12-04T11:32:47.968Z,98142.03
2022-12-04T11:35:55.600Z,98130.34
2022-12-04T11:39:07.429Z,98136.94
2022-12-04T11:42:19.497Z,98154.03
2022-12-04T11:45:24.044Z,98158.16
2022-12-04T11:48:27.295Z,98162.78
2022-12-04T11:51:39.501Z,98172.50
2022-12-04T11:54:51.335Z,98164.47
2022-12-04T11:58:08.160Z,98157.25
2022-12-04T12:01:22.051Z,98151.78
2022-12-04T12:04:46.535Z,98138.88
2022-12-04T12:08:01.893Z,98143.84
2022-12-04T12:11:11.742Z,98137.25
2022-12-04T12:14:21.666Z,98125.69
2022-12-04T12:17:27.413Z,98105.91
2022-12-04T12:20:31.802Z,98111.66
2022-12-04T12:23:47.648Z,98100.91
2022-12-04T12:26:57.093Z,98113.72
2022-12-04T12:30:05.195Z,98109.72
2022-12-04T12:33:16.061Z,98106.78
2022-12-04T12:36:21.643Z,98085.75
2022-12-04T12:39:27.105Z,98098.50
2022-12-04T12:42:34.002Z,98106.19
2022-12-04T12:45:42.603Z,98113.56
2022-12-04T12:48:47.609Z,98113.97
2022-12-04T12:51:53.989Z,98101.25
2022-12-04T12:55:00.475Z,98104.78
2022-12-04T12:58:08.608Z,98110.03
2022-12-04T13:01:14.968Z,98103.66
2022-12-04T13:04:23.580Z,98095.59
2022-12-04T13:07:30.850Z,98093.47
2022-12-04T13:10:37.319Z,98093.69
2022-12-04T13:13:44.659Z,98094.31
2022-12-04T13:16:49.959Z,98096.22
2022-12-04T13:19:54.653Z,98104.41
2022-12-04T13:23:11.997Z,98111.91
2022-12-04T13:26:23.939Z,98118.84
2022-12-04T13:29:46.762Z,98134.28
2022-12-04T13:33:25.060Z,98127.31
2022-12-04T13:36:38.116Z,98128.69
2022-12-04T13:40:19.712Z,98129.41
2022-12-04T13:43:45.569Z,98091.81
2022-12-04T13:46:54.252Z,98113.25
2022-12-04T13:50:25.037Z,98119.28
2022-12-04T13:53:32.505Z,98126.03
2022-12-04T13:56:35.316Z,98117.69
2022-12-04T13:59:39.401Z,98115.06
2022-12-04T14:02:50.744Z,98109.13
2022-12-04T14:05:53.680Z,98104.22
2022-12-04T14:08:58.905Z,98108.94
2022-12-04T14:12:03.093Z,98090.09
2022-12-04T14:15:08.364Z,98083.19
2022-12-04T14:18:25.348Z,98083.16
2022-12-04T14:21:39.799Z,98083.53
2022-12-04T14:24:42.673Z,98100.41
2022-12-04T14:27:46.856Z,98105.44
2022-12-04T14:31:01.811Z,98108.81
2022-12-04T14:34:22.244Z,98115.03
2022-12-04T14:37:28.274Z,98113.94
2022-12-04T14:40:36.453Z,98122.28
2022-12-04T14:43:40.825Z,98111.16
2022-12-04T14:46:46.023Z,98118.78
2022-12-04T14:50:02.879Z,98101.38
2022-12-04T14:53:14.063Z,98110.44
2022-12-04T14:56:24.706Z,98106.56
2022-12-04T14:59:35.348Z,98112.03
2022-12-04T15:02:41.857Z,98112.25
2022-12-04T15:05:46.486Z,98113.34
2022-12-04T15:08:50.886Z,98128.75
2022-12-04T15:12:14.439Z,98142.44
2022-12-04T15:15:22.061Z,98143.22
2022-12-04T15:18:25.212Z,98136.13
2022-12-04T15:21:35.886Z,98137.53
2022-12-04T15:24:39.599Z,98141.03
2022-12-04T15:27:42.034Z,98143.16
2022-12-04T15:30:45.381Z,98153.19
2022-12-04T15:33:48.807Z,98142.94
2022-12-04T15:36:56.668Z,98137.47
2022-12-04T15:40:00.075Z,98137.84
2022-12-04T15:43:16.751Z,98135.97
2022-12-04T15:46:24.230Z,98125.63
2022-12-04T15:49:28.654Z,98131.66
2022-12-04T15:52:32.697Z,98112.56
2022-12-04T15:55:41.169Z,98116.44
2022-12-04T15:58:54.664Z,98124.56
2022-12-04T16:01:57.603Z,98123.13
2022-12-04T16:05:12.381Z,98127.19
2022-12-04T16:08:27.216Z,98127.03
2022-12-04T16:11:34.256Z,98122.13
2022-12-04T16:14:37.187Z,98116.22
2022-12-04T16:17:39.904Z,98109.41
2022-12-04T16:20:42.574Z,98112.09
2022-12-04T16:23:46.772Z,98102.63
2022-12-04T16:26:54.744Z,98098.66
2022-12-04T16:29:57.334Z,98104.00
2022-12-04T16:32:59.987Z,98099.91
2022-12-04T16:36:02.623Z,98109.03
2022-12-04T16:39:06.649Z,98104.41
2022-12-04T16:42:15.719Z,98102.81
2022-12-04T16:45:23.022Z,98087.19
2022-12-04T16:48:26.122Z,98080.78
2022-12-04T16:51:28.781Z,98068.81
2022-12-04T16:54:32.965Z,98078.03
2022-12-04T16:57:35.648Z,98081.31
2022-12-04T17:00:39.187Z,98072.84
2022-12-04T17:03:41.796Z,98078.69
2022-12-04T17:06:44.942Z,98075.19
2022-12-04T17:09:49.012Z,98083.22
2022-12-04T17:12:53.476Z,98100.63
2022-12-04T17:15:56.443Z,98116.16
2022-12-04T17:18:59.381Z,98119.69
2022-12-04T17:22:02.214Z,98124.13
2022-12-04T17:25:07.783Z,98129.53
2022-12-04T17:28:10.501Z,98124.38
2022-12-04T17:31:15.819Z,98137.34
2022-12-04T17:34:18.533Z,98137.34
2022-12-04T17:37:21.566Z,98142.75
2022-12-04T17:40:25.516Z,98149.06
2022-12-04T17:43:29.422Z,98145.03
2022-12-04T17:46:31.942Z,98135.97
2022-12-04T17:49:35.030Z,98136.78
2022-12-04T17:52:37.673Z,98140.00
2022-12-04T17:55:41.676Z,98139.13
2022-12-04T17:58:45.193Z,98142.63
2022-12-04T18:01:48.885Z,98143.72
2022-12-04T18:04:51.453Z,98143.13
2022-12-04T18:07:54.256Z,98130.28
2022-12-04T18:10:58.491Z,98139.00
2022-12-04T18:14:06.004Z,98142.25
2022-12-04T18:17:13.017Z,98139.84
2022-12-04T18:20:15.698Z,98148.53
2022-12-04T18:23:18.776Z,98144.53
2022-12-04T18:26:24.510Z,98146.44
2022-12-04T18:29:27.752Z,98155.34
2022-12-04T18:32:30.522Z,98153.16
2022-12-04T18:35:33.158Z,98150.75
2022-12-04T18:38:36.216Z,98154.75
2022-12-04T18:41:40.346Z,98159.34
2022-12-04T18:44:42.927Z,98158.25
2022-12-04T18:47:45.650Z,98158.25
2022-12-04T18:50:48.867Z,98155.78
2022-12-04T18:53:53.133Z,98148.28
2022-12-04T18:56:57.328Z,98161.19
2022-12-04T19:00:00.174Z,98163.81
2022-12-04T19:03:04.657Z,98170.84
2022-12-04T19:06:08.239Z,98167.63
2022-12-04T19:09:12.764Z,98171.22
2022-12-04T19:12:17.248Z,98173.84
2022-12-04T19:15:20.289Z,98170.03
2022-12-04T19:18:23.107Z,98173.53
2022-12-04T19:21:26.225Z,98176.69
2022-12-04T19:24:29.242Z,98182.47
2022-12-04T19:27:33.899Z,98182.03
2022-12-04T19:30:36.754Z,98191.16
2022-12-04T19:33:39.399Z,98196.41
2022-12-04T19:36:42.651Z,98209.94
2022-12-04T19:39:45.840Z,98213.69
2022-12-04T19:42:50.033Z,98204.09
2022-12-04T19:45:52.837Z,98217.56
2022-12-04T19:48:58.412Z,98212.56
2022-12-04T19:52:01.276Z,98216.31
2022-12-04T19:55:03.959Z,98219.97
2022-12-04T19:58:07.993Z,98223.91
2022-12-04T20:01:13.264Z,98223.41
2022-12-04T20:04:15.889Z,98237.16
2022-12-04T20:07:18.953Z,98230.78
2022-12-04T20:10:22.345Z,98228.59
2022-12-04T20:13:26.465Z,98230.28
2022-12-04T20:16:31.154Z,98225.28
2022-12-04T20:19:34.157Z,98242.25
2022-12-04T20:22:36.974Z,98228.44
2022-12-04T20:25:39.631Z,98238.22
2022-12-04T20:28:43.968Z,98241.16
2022-12-04T20:31:47.487Z,98242.56
2022-12-04T20:34:50.228Z,98241.53
2022-12-04T20:37:53.246Z,98241.38
2022-12-04T20:40:55.985Z,98235.63
2022-12-04T20:44:02.359Z,98240.06
2022-12-04T20:47:05.123Z,98227.44
2022-12-04T20:50:09.398Z,98217.19
2022-12-04T20:53:12.192Z,98226.59
2022-12-04T20:56:15.314Z,98231.75
2022-12-04T20:59:21.117Z,98234.72
2022-12-04T21:02:24.402Z,98239.94
2022-12-04T21:05:27.485Z,98244.47
2022-12-04T21:08:47.627Z,98234.88
2022-12-04T21:11:52.337Z,98238.69
2022-12-04T21:15:14.094Z,98242.50
2022-12-04T21:18:16.732Z,98233.34
2022-12-04T21:21:22.041Z,98239.00
2022-12-04T21:24:26.619Z,98233.84
2022-12-04T21:27:29.169Z,98243.66
2022-12-04T21:30:33.900Z,98238.03
2022-12-04T21:33:37.398Z,98236.84
2022-12-04T21:36:40.285Z,98234.44
2022-12-04T21:39:43.729Z,98235.44
2022-12-04T21:42:48.878Z,98245.72
2022-12-04T21:46:02.011Z,98243.50
2022-12-04T21:49:09.502Z,98253.81
2022-12-04T21:52:12.419Z,98260.34
2022-12-04T21:55:15.321Z,98251.63
2022-12-04T21:58:18.260Z,98261.34
2022-12-04T22:01:24.144Z,98266.53
2022-12-04T22:04:26.898Z,98261.94
2022-12-04T22:07:29.571Z,98266.84
2022-12-04T22:10:32.462Z,98272.16
2022-12-04T22:13:35.189Z,98270.06
2022-12-04T22:16:42.900Z,98265.88
2022-12-04T22:19:45.945Z,98266.19
2022-12-04T22:22:48.775Z,98281.19
2022-12-04T22:25:51.878Z,98290.06
2022-12-04T22:28:54.765Z,98293.53
2022-12-04T22:31:58.867Z,98288.91
2022-12-04T22:35:01.676Z,98299.13
2022-12-04T22:38:04.487Z,98299.38
2022-12-04T22:41:08.887Z,98299.75
2022-12-04T22:44:11.665Z,98301.03
2022-12-04T22:47:15.735Z,98302.16
2022-12-04T22:50:18.694Z,98308.34
2022-12-04T22:53:21.527Z,98302.97
2022-12-04T22:56:26.023Z,98290.94
2022-12-04T22:59:28.872Z,98292.03
2022-12-04T23:02:33.776Z,98297.13
2022-12-04T23:05:36.401Z,98291.41
2022-12-04T23:08:40.376Z,98291.41
2022-12-04T23:11:43.809Z,98295.97
2022-12-04T23:14:46.452Z,98296.81
2022-12-04T23:17:50.418Z,98298.66
2022-12-04T23:20:53.048Z,98298.22
2022-12-04T23:23:56.706Z,98310.13
2022-12-04T23:26:59.573Z,98303.09
2022-12-04T23:30:02.282Z,98318.97
2022-12-04T23:33:06.568Z,98332.16
2022-12-04T23:36:11.282Z,98336.53
2022-12-04T23:39:14.475Z,98340.53
2022-12-04T23:42:17.041Z,98344.03
2022-12-04T23:45:19.866Z,98361.06
2022-12-04T23:48:24.471Z,98374.31
2022-12-04T23:51:27.873Z,98372.72
2022-12-04T23:54:34.919Z,98377.88
2022-12-04T23:57:37.958Z,98390.94
